Time;durP1;ratioP1;P1;durP2;ratioP2;P2;SDS_P1;SDS_P2;PMS_P1;PMS_P2;Temp;Humidity;BMP_temperature;BMP_pressure;BME280_temperature;BME280_humidity;BME280_pressure;Samples;Min_cycle;Max_cycle;Signal;HPM_P1;HPM_P2
2023/12/07 00:00:40;;;;;;;10.38;5.95;;;;;;;2.34;72.67;98897.34;5040464;27;103706;-72
2023/12/07 00:03:08;;;;;;;8.90;6.20;;;;;;;2.33;72.93;98906.13;5051134;27;103163;-72
2023/12/07 00:05:36;;;;;;;9.23;6.03;;;;;;;2.35;73.15;98909.50;5052616;27;102619;-72
2023/12/07 00:08:04;;;;;;;8.77;5.80;;;;;;;2.27;73.57;98906.59;5045425;27;102745;-72
2023/12/07 00:10:32;;;;;;;10.77;7.65;;;;;;;2.21;73.36;98912.25;5044838;27;103741;-72
2023/12/07 00:13:00;;;;;;;8.65;6.03;;;;;;;2.13;74.32;98908.41;5047333;27;103002;-72
2023/12/07 00:15:28;;;;;;;8.88;5.93;;;;;;;2.21;74.17;98912.25;5049183;27;102557;-73
2023/12/07 00:18:00;;;;;;;8.77;6.47;;;;;;;2.12;73.65;98911.97;5050828;27;103101;-73
2023/12/07 00:20:28;;;;;;;7.88;6.15;;;;;;;2.19;73.74;98911.53;5041095;27;103197;-72
2023/12/07 00:22:56;;;;;;;7.35;5.28;;;;;;;2.23;73.65;98915.63;5048601;27;103243;-72
2023/12/07 00:25:24;;;;;;;7.72;5.15;;;;;;;2.30;73.98;98922.06;5047894;27;102652;-72
2023/12/07 00:27:52;;;;;;;8.50;5.63;;;;;;;2.35;73.74;98917.34;5049506;27;104016;-72
2023/12/07 00:30:21;;;;;;;9.23;6.60;;;;;;;2.35;73.48;98922.56;5042547;27;103017;-72
2023/12/07 00:32:49;;;;;;;8.43;5.57;;;;;;;2.37;73.31;98922.44;5045946;27;104483;-72
2023/12/07 00:35:21;;;;;;;8.02;5.82;;;;;;;2.36;73.92;98926.84;5052404;27;103035;-72
2023/12/07 00:37:50;;;;;;;8.70;5.88;;;;;;;2.40;74.11;98923.06;5048464;27;103145;-71
2023/12/07 00:40:18;;;;;;;6.97;4.80;;;;;;;2.43;74.39;98922.84;5042185;27;103447;-72
2023/12/07 00:42:46;;;;;;;9.98;6.68;;;;;;;2.42;73.56;98931.63;5048130;27;103241;-72
2023/12/07 00:45:14;;;;;;;11.45;7.53;;;;;;;2.41;74.36;98924.75;5043582;27;102742;-72
2023/12/07 00:47:42;;;;;;;7.55;5.70;;;;;;;2.37;73.57;98925.91;5046508;27;102701;-72
2023/12/07 00:50:13;;;;;;;8.65;5.97;;;;;;;2.39;74.29;98931.84;5053243;27;103221;-72
2023/12/07 00:52:42;;;;;;;10.70;6.93;;;;;;;2.31;73.98;98929.78;5050144;27;103344;-72
2023/12/07 00:55:13;;;;;;;10.80;7.93;;;;;;;2.34;73.33;98931.34;5047328;27;102614;-72
2023/12/07 00:57:42;;;;;;;10.55;7.05;;;;;;;2.33;73.92;98937.50;5040461;27;104645;-73
2023/12/07 01:00:11;;;;;;;9.52;6.10;;;;;;;2.43;73.56;98938.53;5043993;27;103411;-72
2023/12/07 01:02:39;;;;;;;7.75;5.30;;;;;;;2.43;73.41;98930.69;5042578;27;103655;-71
2023/12/07 01:05:10;;;;;;;7.15;5.18;;;;;;;2.45;73.76;98936.63;5055814;27;102643;-71
2023/12/07 01:07:38;;;;;;;10.05;5.97;;;;;;;2.47;74.01;98939.97;5044650;27;102894;-73
2023/12/07 01:10:08;;;;;;;10.73;7.22;;;;;;;2.51;73.53;98939.75;5048680;27;103361;-72
2023/12/07 01:12:39;;;;;;;10.00;6.88;;;;;;;2.46;73.95;98938.31;5044850;27;103220;-72
2023/12/07 01:15:07;;;;;;;9.20;6.97;;;;;;;2.52;73.38;98949.28;5048394;27;102750;-72
2023/12/07 01:17:35;;;;;;;9.27;6.18;;;;;;;2.49;73.71;98950.34;5052614;27;104021;-73
2023/12/07 01:20:07;;;;;;;7.75;5.88;;;;;;;2.53;73.24;98950.94;5045141;27;103402;-73
2023/12/07 01:22:37;;;;;;;;;;;;;;;2.33;73.33;98950.56;5046897;27;102564;-72
2023/12/07 01:25:07;;;;;;;10.93;7.50;;;;;;;2.41;73.39;98956.13;5048444;27;102691;-72
2023/12/07 01:27:36;;;;;;;7.93;5.82;;;;;;;2.42;74.35;98946.47;5042468;27;102815;-71
2023/12/07 01:30:05;;;;;;;6.30;4.88;;;;;;;2.54;74.29;98953.47;5046121;27;103341;-73
2023/12/07 01:32:34;;;;;;;9.43;5.57;;;;;;;2.60;73.69;98955.59;5044939;27;103176;-72
2023/12/07 01:35:04;;;;;;;6.75;5.20;;;;;;;2.59;73.79;98953.94;5043458;27;102634;-73
2023/12/07 01:37:32;;;;;;;7.35;5.13;;;;;;;2.56;73.20;98953.34;5045045;27;104200;-72
2023/12/07 01:40:09;;;;;;;7.30;5.18;;;;;;;2.61;73.66;98962.50;5036490;27;104154;-72
2023/12/07 01:42:39;;;;;;;8.02;4.78;;;;;;;2.61;73.29;98957.28;5044478;27;103515;-72
2023/12/07 01:45:08;;;;;;;7.70;5.20;;;;;;;2.66;73.01;98964.81;5049075;27;102719;-72
2023/12/07 01:47:37;;;;;;;9.18;6.53;;;;;;;2.69;73.58;98969.81;5046908;27;102774;-73
2023/12/07 01:50:10;;;;;;;9.23;6.32;;;;;;;2.59;73.38;98969.63;5041455;27;103247;-73
2023/12/07 01:52:43;;;;;;;10.73;8.10;;;;;;;2.57;73.02;98970.69;5045655;27;103201;-72
2023/12/07 01:55:12;;;;;;;7.60;5.43;;;;;;;2.56;74.00;98966.41;5042350;27;102685;-72
2023/12/07 01:57:44;;;;;;;10.15;7.25;;;;;;;2.61;73.75;98972.16;5047450;27;102968;-72
2023/12/07 02:00:13;;;;;;;8.43;5.90;;;;;;;2.57;73.64;98975.91;5045997;27;103909;-72
2023/12/07 02:02:42;;;;;;;7.28;5.28;;;;;;;2.57;73.76;98968.91;5047077;27;103235;-72
2023/12/07 02:05:10;;;;;;;7.93;6.03;;;;;;;2.56;73.46;98975.09;5041655;27;102721;-68
2023/12/07 02:07:42;;;;;;;8.25;6.18;;;;;;;2.58;73.61;98973.19;5049888;27;103112;-68
2023/12/07 02:10:11;;;;;;;9.25;7.05;;;;;;;2.50;74.29;98970.28;5041275;27;104170;-71
2023/12/07 02:12:39;;;;;;;14.68;8.25;;;;;;;2.36;73.85;98984.34;5043103;27;103200;-73
2023/12/07 02:15:11;;;;;;;11.20;7.32;;;;;;;2.29;73.80;98978.72;5040923;27;102601;-68
2023/12/07 02:17:49;;;;;;;11.98;7.18;;;;;;;2.32;74.06;98975.06;5042899;27;103957;-68
2023/12/07 02:20:26;;;;;;;10.48;6.72;;;;;;;2.28;73.91;98973.59;5040122;27;103221;-68
2023/12/07 02:22:56;;;;;;;12.40;7.20;;;;;;;2.37;73.78;98972.09;5043657;27;103782;-72
2023/12/07 02:25:30;;;;;;;8.57;6.10;;;;;;;2.34;73.57;98960.09;5045165;27;102684;-73
2023/12/07 02:27:59;;;;;;;;;;;;;;;2.19;73.70;98963.78;5047124;27;102641;-74
2023/12/07 02:30:27;;;;;;;10.85;7.00;;;;;;;2.25;74.27;98960.75;5043172;27;103172;-73
2023/12/07 02:32:55;;;;;;;8.25;6.10;;;;;;;2.24;74.01;98973.00;5044203;27;103324;-73
2023/12/07 02:35:25;;;;;;;8.15;5.60;;;;;;;2.28;74.24;98970.97;5049562;27;102665;-72
2023/12/07 02:37:56;;;;;;;8.35;5.70;;;;;;;2.26;74.08;98976.31;5068030;27;102576;-72
2023/12/07 02:40:26;;;;;;;8.23;5.35;;;;;;;2.24;74.43;98967.78;5044795;27;103233;-73
2023/12/07 02:42:55;;;;;;;7.03;4.88;;;;;;;2.19;73.73;98974.25;5049897;27;103222;-68
2023/12/07 02:45:25;;;;;;;7.18;5.03;;;;;;;2.21;74.39;98981.03;5053390;27;102609;-68
2023/12/07 02:47:53;;;;;;;9.95;7.35;;;;;;;2.15;73.74;98977.09;5041082;27;102732;-67
2023/12/07 02:50:22;;;;;;;11.10;7.20;;;;;;;2.03;73.79;98972.72;5039315;27;103392;-68
2023/12/07 02:52:49;;;;;;;11.45;6.70;;;;;;;1.89;74.57;98973.69;5045040;27;103354;-72
2023/12/07 02:55:17;;;;;;;8.95;6.70;;;;;;;1.82;74.51;98970.66;5050861;27;103004;-68
2023/12/07 02:57:46;;;;;;;9.30;7.05;;;;;;;1.73;74.46;98979.13;5045300;27;103659;-68
2023/12/07 03:00:15;;;;;;;9.23;6.68;;;;;;;1.76;74.71;98976.28;5042421;27;103873;-68
2023/12/07 03:02:44;;;;;;;9.57;5.97;;;;;;;1.82;74.71;98978.50;5040459;27;102673;-68
2023/12/07 03:05:12;;;;;;;10.43;6.03;;;;;;;1.85;75.12;98979.19;5043908;27;103744;-72
2023/12/07 03:07:40;;;;;;;11.52;7.35;;;;;;;1.71;74.45;98986.22;5048685;27;102713;-73
2023/12/07 03:10:09;;;;;;;10.38;6.82;;;;;;;1.46;75.47;98980.03;5050745;27;103130;-72
2023/12/07 03:12:36;;;;;;;11.77;7.97;;;;;;;1.28;75.68;98986.50;5047117;27;103230;-72
2023/12/07 03:15:05;;;;;;;9.35;6.70;;;;;;;1.31;75.66;98986.28;5045036;27;102705;-73
2023/12/07 03:17:36;;;;;;;10.32;6.60;;;;;;;1.38;75.95;98982.34;5045205;27;102717;-72
2023/12/07 03:20:10;;;;;;;7.97;5.68;;;;;;;1.38;75.74;98986.72;5046344;27;103153;-72
2023/12/07 03:22:38;;;;;;;12.18;9.02;;;;;;;1.40;75.13;98975.25;5053354;27;103603;-74
2023/12/07 03:25:06;;;;;;;9.65;7.35;;;;;;;1.28;75.92;98986.50;5051289;27;102697;-73
2023/12/07 03:27:34;;;;;;;10.63;6.85;;;;;;;1.26;75.72;98993.59;5050819;27;102762;-72
2023/12/07 03:30:03;;;;;;;11.25;8.00;;;;;;;1.23;75.56;98983.34;5038575;27;103247;-72
2023/12/07 03:32:31;;;;;;;11.50;7.05;;;;;;;1.22;75.71;98986.88;5046995;27;103315;-72
2023/12/07 03:34:59;;;;;;;8.40;6.18;;;;;;;1.29;75.86;98983.78;5053174;27;103076;-72
2023/12/07 03:37:28;;;;;;;8.07;5.80;;;;;;;1.35;75.69;98981.69;5048344;27;102809;-72
2023/12/07 03:39:56;;;;;;;9.25;5.70;;;;;;;1.38;75.50;98981.50;5045153;27;103235;-72
2023/12/07 03:42:24;;;;;;;15.25;9.85;;;;;;;1.33;74.50;98984.41;5051266;27;103294;-72
2023/12/07 03:45:12;;;;;;;8.57;6.63;;;;;;;1.22;75.78;98992.09;5045477;27;102597;-72
2023/12/07 03:47:40;;;;;;;11.32;7.55;;;;;;;1.19;76.04;98997.53;5047855;27;102555;-72
2023/12/07 03:50:09;;;;;;;11.20;7.63;;;;;;;1.20;75.91;98992.22;5045031;27;104004;-72
2023/12/07 03:52:38;;;;;;;9.98;6.88;;;;;;;1.22;75.78;99007.75;5045445;27;103394;-72
2023/12/07 03:55:06;;;;;;;13.05;9.45;;;;;;;1.15;75.60;98992.53;5042527;27;102845;-72
2023/12/07 03:57:34;;;;;;;14.13;10.15;;;;;;;0.88;76.51;98999.53;5047076;27;103935;-72
2023/12/07 04:00:07;;;;;;;15.02;10.40;;;;;;;0.85;77.33;99007.56;5041109;27;103179;-72
2023/12/07 04:02:35;;;;;;;12.85;7.95;;;;;;;0.90;77.48;99002.88;5044842;27;103194;-72
2023/12/07 04:05:03;;;;;;;10.38;7.80;;;;;;;0.97;77.31;99005.00;5048212;27;102638;-72
2023/12/07 04:07:31;;;;;;;12.00;7.95;;;;;;;1.01;76.93;99000.44;5045233;27;102799;-72
2023/12/07 04:10:01;;;;;;;15.15;9.73;;;;;;;0.89;76.56;99012.50;5047231;27;103275;-71
2023/12/07 04:12:29;;;;;;;12.48;9.45;;;;;;;0.92;76.86;99006.25;5049935;27;103050;-72
2023/12/07 04:14:57;;;;;;;9.00;6.80;;;;;;;0.90;76.81;99008.09;5047490;27;102733;-67
2023/12/07 04:17:25;;;;;;;11.10;7.47;;;;;;;0.75;76.68;99004.72;5046087;27;103787;-68
2023/12/07 04:19:52;;;;;;;12.88;8.63;;;;;;;0.65;77.03;99015.72;5046470;27;103316;-67
2023/12/07 04:22:21;;;;;;;14.63;9.57;;;;;;;0.71;77.24;99009.28;5051119;27;103188;-73
2023/12/07 04:24:49;;;;;;;15.43;10.40;;;;;;;0.74;77.17;99018.69;5047200;27;102729;-73
2023/12/07 04:27:18;;;;;;;13.60;9.38;;;;;;;0.66;76.74;99012.19;5046277;27;103893;-72
2023/12/07 04:29:46;;;;;;;11.50;6.63;;;;;;;0.65;76.66;99020.09;5047904;27;103301;-68
2023/12/07 04:32:14;;;;;;;9.43;6.63;;;;;;;0.63;77.06;99006.34;5041160;27;103031;-68
2023/12/07 04:34:42;;;;;;;11.73;8.57;;;;;;;0.65;76.78;99020.09;5045167;27;102577;-68
2023/12/07 04:37:10;;;;;;;9.98;6.63;;;;;;;0.60;76.97;99019.56;5041557;27;104011;-68
2023/12/07 04:39:38;;;;;;;11.68;7.50;;;;;;;0.60;77.07;99016.94;5037426;27;103299;-68
2023/12/07 04:42:06;;;;;;;9.10;6.70;;;;;;;0.64;76.95;99023.63;5048421;27;103275;-73
2023/12/07 04:44:36;;;;;;;8.88;6.55;;;;;;;0.68;76.97;99025.09;5029711;27;102681;-72
2023/12/07 04:47:04;;;;;;;18.75;12.00;;;;;;;0.64;76.25;99018.41;5054788;27;103800;-72
2023/12/07 04:49:32;;;;;;;18.48;12.73;;;;;;;0.41;77.33;99020.72;5048703;27;103018;-72
2023/12/07 04:52:00;;;;;;;12.07;9.05;;;;;;;0.30;78.23;99018.78;5046700;27;103350;-72
2023/12/07 04:54:28;;;;;;;15.98;10.63;;;;;;;0.30;78.03;99025.75;5048140;27;102770;-73
2023/12/07 04:56:56;;;;;;;15.77;10.77;;;;;;;0.28;78.33;99022.41;5042068;27;104057;-68
2023/12/07 04:59:24;;;;;;;16.35;10.80;;;;;;;0.24;78.45;99026.16;5044819;27;103035;-68
2023/12/07 05:01:53;;;;;;;14.52;9.35;;;;;;;0.29;78.39;99024.09;5043998;27;103497;-68
2023/12/07 05:04:21;;;;;;;10.05;7.38;;;;;;;0.31;78.28;99030.88;5048381;27;102505;-68
2023/12/07 05:06:49;;;;;;;14.25;8.73;;;;;;;0.27;77.92;99020.72;5043452;27;103792;-68
2023/12/07 05:09:21;;;;;;;14.57;9.50;;;;;;;0.25;77.89;99013.03;5049990;27;103781;-68
2023/12/07 05:11:50;;;;;;;9.80;7.40;;;;;;;0.26;78.28;99019.91;5036084;27;103226;-68
2023/12/07 05:14:18;;;;;;;15.65;10.23;;;;;;;0.20;78.04;99019.41;5043304;27;102835;-68
2023/12/07 05:16:48;;;;;;;11.75;8.27;;;;;;;0.22;78.32;99020.19;5044050;27;102695;-68
2023/12/07 05:19:17;;;;;;;13.30;10.23;;;;;;;0.25;78.00;99022.59;5045096;27;104515;-68
2023/12/07 05:21:45;;;;;;;11.23;8.30;;;;;;;0.18;77.96;99026.50;5037667;27;103223;-68
2023/12/07 05:24:13;;;;;;;11.23;8.35;;;;;;;0.16;78.04;99024.84;5029998;27;102902;-68
2023/12/07 05:26:42;;;;;;;13.93;10.40;;;;;;;0.11;77.70;99032.09;5041392;27;102615;-68
2023/12/07 05:29:11;;;;;;;11.00;8.10;;;;;;;0.07;77.79;99030.59;5043098;27;103442;-72
2023/12/07 05:31:39;;;;;;;14.52;9.90;;;;;;;0.04;78.00;99029.94;5038237;27;103031;-68
2023/12/07 05:34:08;;;;;;;13.50;9.55;;;;;;;0.03;77.91;99033.47;5045807;27;102676;-68
2023/12/07 05:36:37;;;;;;;12.43;8.73;;;;;;;0.07;77.96;99035.00;5067600;27;102957;-68
2023/12/07 05:39:07;;;;;;;12.27;7.97;;;;;;;0.09;77.68;99033.97;5043964;27;104466;-68
2023/12/07 05:41:35;;;;;;;12.50;9.65;;;;;;;0.04;77.44;99036.00;5044662;27;103168;-68
2023/12/07 05:44:03;;;;;;;11.57;8.55;;;;;;;0.02;77.92;99035.25;5047637;27;102662;-68
2023/12/07 05:46:32;;;;;;;14.43;9.90;;;;;;;0.01;77.39;99036.19;5048770;27;102686;-68
2023/12/07 05:49:00;;;;;;;11.00;8.38;;;;;;;-0.18;77.96;99036.47;5041173;27;103288;-68
2023/12/07 05:51:29;;;;;;;15.38;9.85;;;;;;;-0.11;77.97;99031.72;5044408;27;103308;-68
2023/12/07 05:53:58;;;;;;;11.35;7.90;;;;;;;-0.13;78.51;99026.63;5042308;27;102672;-68
2023/12/07 05:56:27;;;;;;;15.45;11.38;;;;;;;-0.24;77.70;99026.41;5045099;27;102885;-73
2023/12/07 05:58:56;;;;;;;15.07;9.95;;;;;;;-0.35;78.66;99027.06;5040115;27;103243;-73
2023/12/07 06:01:25;;;;;;;14.13;9.75;;;;;;;-0.27;78.83;99027.44;5038583;27;103424;-73
2023/12/07 06:03:56;;;;;;;12.18;8.48;;;;;;;-0.26;78.76;99029.09;5043937;27;102655;-73
2023/12/07 06:06:24;;;;;;;12.45;9.82;;;;;;;-0.21;79.00;99028.81;5043826;27;102629;-74
2023/12/07 06:08:52;;;;;;;11.02;7.78;;;;;;;-0.11;78.92;99029.13;5048869;27;103331;-76
2023/12/07 06:11:22;;;;;;;11.10;7.95;;;;;;;-0.11;78.48;99029.94;5047245;27;103290;-73
2023/12/07 06:13:50;;;;;;;12.25;9.55;;;;;;;-0.09;78.07;99035.06;5044267;27;103298;-73
2023/12/07 06:16:18;;;;;;;12.40;9.23;;;;;;;-0.18;77.95;99036.47;5043377;27;102647;-73
2023/12/07 06:18:46;;;;;;;12.00;8.45;;;;;;;-0.25;78.24;99040.34;5039834;27;104142;-73
2023/12/07 06:21:15;;;;;;;13.55;8.85;;;;;;;-0.31;78.73;99031.13;5048687;27;103513;-73
2023/12/07 06:23:46;;;;;;;13.93;8.60;;;;;;;-0.33;78.49;99033.00;5053560;27;102656;-73
2023/12/07 06:26:14;;;;;;;14.02;10.30;;;;;;;-0.39;78.35;99033.38;5051480;27;102903;-72
2023/12/07 06:28:44;;;;;;;14.65;10.73;;;;;;;-0.51;78.95;99025.34;5047513;27;104001;-74
2023/12/07 06:31:14;;;;;;;12.63;9.43;;;;;;;-0.60;79.05;99031.09;5052108;27;103197;-73
2023/12/07 06:33:43;;;;;;;10.40;7.75;;;;;;;-0.47;79.21;99038.16;5064893;27;102625;-68
2023/12/07 06:36:11;;;;;;;11.38;7.18;;;;;;;-0.42;78.85;99039.59;5050395;27;102744;-68
2023/12/07 06:38:39;;;;;;;9.85;7.10;;;;;;;-0.38;78.81;99042.81;5047616;27;103466;-68
2023/12/07 06:41:07;;;;;;;9.82;6.97;;;;;;;-0.34;78.56;99032.16;5039260;27;103264;-67
2023/12/07 06:43:35;;;;;;;11.55;8.40;;;;;;;-0.36;78.32;99039.22;5049264;27;102747;-68
2023/12/07 06:46:04;;;;;;;17.42;10.52;;;;;;;-0.36;78.36;99030.56;5049020;27;103734;-68
2023/12/07 06:48:35;;;;;;;14.48;9.45;;;;;;;-0.36;78.42;99035.78;5047955;27;103270;-68
2023/12/07 06:51:03;;;;;;;15.73;10.95;;;;;;;-0.34;78.27;99036.53;5044775;27;103367;-68
2023/12/07 06:53:32;;;;;;;15.80;10.52;;;;;;;-0.33;78.42;99040.78;5041893;27;102707;-68
2023/12/07 06:56:00;;;;;;;15.48;10.05;;;;;;;-0.37;78.15;99042.75;5049966;27;102964;-68
2023/12/07 06:58:28;;;;;;;21.30;13.30;;;;;;;-0.31;77.87;99038.09;5049889;27;103283;-68
2023/12/07 07:00:57;;;;;;;14.80;9.70;;;;;;;-0.38;78.07;99037.63;5045194;27;103312;-74
2023/12/07 07:03:27;;;;;;;16.33;11.50;;;;;;;-0.30;78.06;99043.22;5047249;27;102593;-74
2023/12/07 07:05:55;;;;;;;17.55;12.63;;;;;;;-0.31;78.06;99040.69;5053386;27;102683;-68
2023/12/07 07:08:23;;;;;;;19.92;12.55;;;;;;;-0.31;77.82;99043.31;5048186;27;104602;-68
2023/12/07 07:10:51;;;;;;;18.30;11.50;;;;;;;-0.44;78.53;99040.59;5040896;27;103259;-74
2023/12/07 07:13:20;;;;;;;12.68;9.40;;;;;;;-0.47;78.65;99045.97;5054568;27;102671;-73
2023/12/07 07:15:48;;;;;;;16.27;10.73;;;;;;;-0.45;78.87;99038.94;5051145;27;103988;-74
2023/12/07 07:18:16;;;;;;;15.50;10.60;;;;;;;-0.40;78.77;99040.31;5041512;27;103419;-74
2023/12/07 07:20:47;;;;;;;16.80;11.15;;;;;;;-0.29;78.74;99039.69;5070137;27;103333;-74
2023/12/07 07:23:14;;;;;;;17.88;10.93;;;;;;;-0.28;78.76;99036.16;5046533;27;102594;-74
2023/12/07 07:25:42;;;;;;;20.95;14.38;;;;;;;-0.26;78.25;99034.31;5049250;27;103788;-74
2023/12/07 07:28:10;;;;;;;21.55;14.27;;;;;;;-0.27;78.36;99037.00;5045835;27;103330;-74
2023/12/07 07:30:39;;;;;;;22.73;15.07;;;;;;;-0.24;79.09;99042.84;5042801;27;103139;-74
2023/12/07 07:33:07;;;;;;;16.25;10.82;;;;;;;-0.18;79.09;99042.50;5044795;27;103175;-74
2023/12/07 07:35:35;;;;;;;20.58;12.93;;;;;;;-0.09;78.56;99048.06;5036643;27;103740;-75
2023/12/07 07:38:04;;;;;;;15.95;12.07;;;;;;;-0.04;78.76;99043.44;5047184;27;103649;-69
2023/12/07 07:40:34;;;;;;;17.83;11.55;;;;;;;-0.06;79.34;99045.31;5032247;27;103234;-69
2023/12/07 07:43:02;;;;;;;20.23;14.13;;;;;;;-0.04;78.98;99040.81;5044210;27;102646;-71
2023/12/07 07:45:30;;;;;;;19.70;13.35;;;;;;;0.07;79.14;99046.22;5044998;27;102685;-69
2023/12/07 07:47:58;;;;;;;24.58;15.02;;;;;;;0.15;78.94;99049.19;5051014;27;103284;-74
2023/12/07 07:50:28;;;;;;;16.65;11.07;;;;;;;0.20;79.56;99055.88;5048462;27;103203;-74
2023/12/07 07:52:56;;;;;;;19.92;13.32;;;;;;;0.38;78.57;99048.72;5044820;27;102679;-75
2023/12/07 07:55:25;;;;;;;18.48;12.88;;;;;;;0.39;78.68;99048.63;5051124;27;102601;-69
2023/12/07 07:57:53;;;;;;;18.13;13.52;;;;;;;0.47;78.51;99059.44;5036986;27;103230;-69
2023/12/07 08:00:22;;;;;;;22.02;12.35;;;;;;;0.58;78.16;99065.75;5044224;27;103294;-70
2023/12/07 08:02:50;;;;;;;18.75;13.45;;;;;;;0.61;78.22;99060.34;5048959;27;103010;-69
2023/12/07 08:05:18;;;;;;;24.02;15.05;;;;;;;0.64;78.08;99057.53;5048515;27;103911;-69
2023/12/07 08:07:46;;;;;;;22.63;13.88;;;;;;;0.70;77.85;99061.53;5047017;27;103128;-69
2023/12/07 08:10:15;;;;;;;23.73;14.23;;;;;;;0.66;78.39;99053.88;5048542;27;103258;-69
2023/12/07 08:12:46;;;;;;;26.27;14.73;;;;;;;0.92;78.01;99063.63;5051445;27;102966;-73
2023/12/07 08:15:14;;;;;;;22.90;14.50;;;;;;;0.95;77.28;99063.41;5045610;27;102975;-69
2023/12/07 08:17:43;;;;;;;27.60;15.02;;;;;;;1.12;77.23;99060.56;5051217;27;104171;-69
2023/12/07 08:20:12;;;;;;;23.95;15.98;;;;;;;1.06;77.64;99058.38;5048533;27;103172;-69
2023/12/07 08:22:41;;;;;;;22.05;14.27;;;;;;;1.15;77.38;99060.38;5047136;27;102682;-74
2023/12/07 08:25:10;;;;;;;23.80;16.02;;;;;;;0.97;76.96;99056.31;5051989;27;103971;-74
2023/12/07 08:27:41;;;;;;;21.27;15.52;;;;;;;0.83;78.19;99055.44;5049627;27;103229;-73
2023/12/07 08:30:11;;;;;;;21.25;15.73;;;;;;;1.04;77.53;99059.41;5051369;27;103239;-74
2023/12/07 08:32:39;;;;;;;21.45;15.65;;;;;;;0.97;77.85;99057.16;5052284;27;102660;-74
2023/12/07 08:35:08;;;;;;;18.00;13.70;;;;;;;0.90;78.20;99055.88;5049282;27;102552;-74
2023/12/07 08:37:38;;;;;;;14.93;11.52;;;;;;;1.35;77.56;99055.63;5043923;27;103268;-74
2023/12/07 08:40:09;;;;;;;19.48;13.80;;;;;;;1.71;76.05;99064.56;5044345;27;102564;-74
2023/12/07 08:42:37;;;;;;;15.32;12.07;;;;;;;1.70;76.28;99060.25;5049965;27;102679;-74
2023/12/07 08:45:06;;;;;;;18.98;12.55;;;;;;;2.15;75.67;99065.94;5043794;27;104276;-73
2023/12/07 08:47:38;;;;;;;15.07;10.55;;;;;;;2.30;74.62;99064.03;5047917;27;103785;-73
2023/12/07 08:50:09;;;;;;;18.52;12.98;;;;;;;2.48;73.25;99055.84;5055245;27;103283;-74
2023/12/07 08:52:37;;;;;;;15.15;10.23;;;;;;;2.62;73.81;99062.72;5050083;27;103264;-74
2023/12/07 08:55:16;;;;;;;17.52;10.75;;;;;;;2.67;73.52;99063.22;5044088;27;104304;-74
2023/12/07 08:57:45;;;;;;;14.52;9.35;;;;;;;2.98;73.60;99050.56;5049730;27;103193;-73
2023/12/07 09:00:14;;;;;;;13.13;10.50;;;;;;;3.08;72.46;99038.50;5050027;27;103253;-73
2023/12/07 09:02:43;;;;;;;17.10;11.65;;;;;;;3.06;71.80;99036.94;5044525;27;102584;-69
2023/12/07 09:05:15;;;;;;;18.77;12.03;;;;;;;3.19;71.60;99029.84;5052580;27;102984;-69
2023/12/07 09:07:44;;;;;;;16.88;12.30;;;;;;;3.31;71.17;99036.81;5041521;27;104346;-69
2023/12/07 09:10:12;;;;;;;15.00;11.27;;;;;;;3.08;71.86;99038.50;5041240;27;103288;-73
2023/12/07 09:12:40;;;;;;;26.60;12.65;;;;;;;3.12;71.54;99034.69;5047051;27;102785;-72
2023/12/07 09:15:09;;;;;;;15.25;11.27;;;;;;;3.41;71.28;99031.72;5045649;27;102603;-73
2023/12/07 09:17:39;;;;;;;18.15;11.48;;;;;;;3.18;71.59;99030.78;5048635;27;104830;-69
2023/12/07 09:20:12;;;;;;;21.23;10.90;;;;;;;3.22;71.78;99018.31;5046078;27;103229;-69
2023/12/07 09:22:44;;;;;;;15.95;11.63;;;;;;;3.51;71.09;99021.41;5043447;27;102538;-69
2023/12/07 09:25:12;;;;;;;16.38;11.48;;;;;;;3.51;70.55;99016.16;5054465;27;102753;-69
2023/12/07 09:27:41;;;;;;;16.88;11.35;;;;;;;3.66;69.44;99016.78;5041249;27;104161;-69
2023/12/07 09:30:12;;;;;;;12.25;8.93;;;;;;;3.79;70.13;99014.06;5043113;27;103112;-75
2023/12/07 09:32:42;;;;;;;12.18;9.20;;;;;;;3.79;69.63;99021.94;5044627;27;102633;-73
2023/12/07 09:35:15;;;;;;;17.50;11.65;;;;;;;3.61;70.08;99024.16;5051530;27;102761;-73
2023/12/07 09:37:43;;;;;;;17.58;10.80;;;;;;;3.73;70.08;99022.38;5046701;27;102949;-73
2023/12/07 09:40:17;;;;;;;15.10;10.88;;;;;;;3.52;68.62;99027.47;5037708;27;103226;-73
2023/12/07 09:42:45;;;;;;;16.17;10.93;;;;;;;3.51;70.75;99012.69;5048112;27;102590;-73
2023/12/07 09:45:14;;;;;;;14.88;11.35;;;;;;;3.61;69.20;99018.91;5050400;27;103014;-74
2023/12/07 09:47:42;;;;;;;14.32;10.38;;;;;;;3.77;69.31;99010.72;5044166;27;104481;-73
2023/12/07 09:50:11;;;;;;;18.00;11.25;;;;;;;3.67;68.42;99007.97;5042633;27;103231;-72
2023/12/07 09:52:43;;;;;;;11.63;9.73;;;;;;;3.94;69.50;99009.44;5043224;27;102613;-73
2023/12/07 09:55:24;;;;;;;12.73;9.52;;;;;;;4.07;68.60;99009.31;5053120;27;102628;-73
2023/12/07 09:57:54;;;;;;;12.38;9.45;;;;;;;4.30;67.80;99004.91;5041115;27;104288;-73
2023/12/07 10:00:25;;;;;;;14.57;10.48;;;;;;;4.18;66.20;99011.09;5040411;27;103233;-73
2023/12/07 10:02:56;;;;;;;13.48;9.68;;;;;;;4.34;66.63;99003.72;5052030;27;103035;-73
2023/12/07 10:05:24;;;;;;;13.68;9.80;;;;;;;4.43;66.07;99002.97;5045891;27;102741;-73
2023/12/07 10:07:53;;;;;;;11.18;7.85;;;;;;;4.51;66.09;98986.63;5045727;27;103262;-72
2023/12/07 10:10:22;;;;;;;11.45;7.38;;;;;;;4.24;64.29;98989.66;5041057;27;103201;-69
2023/12/07 10:12:53;;;;;;;10.90;7.65;;;;;;;4.39;64.32;98985.81;5043064;27;103185;-73
2023/12/07 10:15:23;;;;;;;10.65;7.53;;;;;;;4.52;64.04;98979.59;5051922;27;103293;-72
2023/12/07 10:17:52;;;;;;;9.55;7.45;;;;;;;4.57;64.19;98977.44;5048429;27;103366;-73
2023/12/07 10:20:23;;;;;;;11.27;8.40;;;;;;;4.77;63.61;98976.66;5049201;27;102967;-73
2023/12/07 10:23:03;;;;;;;11.48;7.97;;;;;;;4.61;62.58;98977.09;5052151;27;102687;-72
2023/12/07 10:25:32;;;;;;;12.82;7.70;;;;;;;4.73;61.92;98982.28;5052099;27;104099;-72
2023/12/07 10:28:06;;;;;;;10.05;6.90;;;;;;;4.81;62.99;98967.59;5053688;27;103064;-73
2023/12/07 10:30:37;;;;;;;11.65;7.63;;;;;;;4.87;62.02;98954.94;5056337;27;103185;-72
2023/12/07 10:33:08;;;;;;;11.90;7.90;;;;;;;5.07;61.76;98950.66;5049265;27;102636;-73
2023/12/07 10:35:40;;;;;;;10.60;7.90;;;;;;;5.15;61.29;98959.56;5050437;27;102707;-73
2023/12/07 10:38:10;;;;;;;9.43;6.60;;;;;;;5.19;61.98;98952.28;5046333;27;104040;-73
2023/12/07 10:40:38;;;;;;;13.00;8.07;;;;;;;4.85;62.23;98956.84;5053886;27;103216;-73
2023/12/07 10:43:08;;;;;;;11.20;8.13;;;;;;;5.20;61.92;98953.09;5043735;27;103298;-73
2023/12/07 10:45:37;;;;;;;9.60;6.70;;;;;;;5.45;60.56;98944.84;5044188;27;102712;-72
2023/12/07 10:48:07;;;;;;;11.90;7.55;;;;;;;5.32;61.91;98945.03;5050088;27;104541;-73
2023/12/07 10:50:41;;;;;;;11.00;6.78;;;;;;;5.52;60.99;98939.06;5054962;27;103204;-73
2023/12/07 10:53:20;;;;;;;9.80;6.97;;;;;;;5.59;60.73;98940.22;5051111;27;102726;-72
2023/12/07 10:55:56;;;;;;;11.55;7.07;;;;;;;5.68;59.49;98938.59;5042972;27;102824;-73
2023/12/07 10:58:25;;;;;;;10.82;6.00;;;;;;;5.82;58.95;98943.50;5048622;27;104587;-72
2023/12/07 11:00:53;;;;;;;11.25;7.55;;;;;;;5.77;58.99;98933.38;5045970;27;103244;-72
2023/12/07 11:03:22;;;;;;;15.07;7.05;;;;;;;5.87;57.14;98933.44;5048322;27;102679;-72
2023/12/07 11:05:51;;;;;;;9.75;6.45;;;;;;;6.18;58.74;98924.72;5047702;27;103114;-69
2023/12/07 11:08:29;;;;;;;8.07;5.90;;;;;;;6.18;57.69;98916.81;5048193;27;104026;-69
2023/12/07 11:11:05;;;;;;;13.40;5.80;;;;;;;6.26;57.82;98916.97;5044220;27;103213;-67
2023/12/07 11:13:37;;;;;;;14.98;9.32;;;;;;;6.42;58.36;98905.91;5043581;27;102956;-67
2023/12/07 11:16:06;;;;;;;11.13;6.30;;;;;;;6.60;55.82;98892.91;5042193;27;102778;-66
2023/12/07 11:18:34;;;;;;;15.60;7.40;;;;;;;6.32;54.82;98895.38;5050897;27;103216;-67
2023/12/07 11:21:02;;;;;;;9.43;6.40;;;;;;;6.41;57.17;98878.78;5051566;27;103152;-66
2023/12/07 11:23:32;;;;;;;8.75;5.70;;;;;;;6.56;54.72;98878.38;5043428;27;102640;-67
2023/12/07 11:26:03;;;;;;;8.95;6.20;;;;;;;6.46;54.00;98881.84;5038126;27;102586;-67
2023/12/07 11:28:39;;;;;;;10.95;6.93;;;;;;;6.76;54.30;98881.81;5045120;27;103048;-66
2023/12/07 11:31:10;;;;;;;7.68;5.10;;;;;;;6.63;52.51;98876.88;5043435;27;103857;-67
2023/12/07 11:33:39;;;;;;;7.85;5.20;;;;;;;6.54;53.04;98867.16;5043498;27;102642;-67